Terminal Aerodrome Forecast
Issued by NWS Shreveport, LA

Current Version | Previous Version | Text Only | Print | Product List | Glossary On
Versions: 1 2 3 4 5 6 7 8 9 10 11 12 13 14 15 16 17 18 19 20 21 22 23 24
387
FTUS44 KSHV 230757 AAA
TAFLFK
TAF AMD
KLFK 230757Z 2308/2406 31004KT 4SM BR OVC004
      TEMPO 2308/2312 1SM -SHRA BR OVC002
     FM231200 07003KT 1/4SM FG VCSH VV001
     FM231800 15005KT 5SM BR OVC007
     FM232100 17007KT P6SM OVC025
     FM240000 14005KT P6SM OVC100
     FM240300 15005KT P6SM OVC015=

USA.gov is the U.S. government's official web portal to all federal, state and local government web resources and services.